Fergus Falls, MN

5:34 AM CDT on September 30, 2014 (GMT -0500)
Fergus Falls Municipal-Mickelson | Change Station
CLOSE
Current Station
Airport
Location: Fergus Falls,
Elevation: 1184 ft
Nearby Weather Stations

Elev 1184 ft 46.29 °N, 96.15 °W | Updated 20 minutes ago

Overcast
Overcast
43 °F
Feels Like 35 °F
N
15
Wind Variable Wind from ESE
Gusts 18 mph

Today
High -- | Low -- °F
--% Chance of Precip.
Yesterday
High -- | Low -- °F
Precip. -- in
7:21 AM 7:06 PM
Waxing Crescent, 35% visible
Pressure 30.01 in
Visibility 10.0 miles
Clouds Overcast 500 ft
Windchill 35 °F
Dew Point 41 °F
Humidity 93%
Rainfall 0.00 in
Snow Depth Not available.
UV 0 out of 12
Pollen 1.60 out of 12
Air Quality Not available.
Flu Activity Not available.
METAR KFFM 301014Z AUTO 12013G16KT 10SM OVC005 06/05 A3001 RMK AO2

More Conditions Fewer Conditions

Pressure 30.01 in
Visibility 10.0 miles
Clouds Overcast 500 ft
Windchill 35 °F
Dew Point 41 °F
Humidity 93%
Rainfall 0.00 in
Snow Depth Not available.
UV 0 out of 12
Pollen 1.60 out of 12
Air Quality Not available.
Flu Activity Not available.
METAR KFFM 301014Z AUTO 12013G16KT 10SM OVC005 06/05 A3001 RMK AO2

More Conditions Fewer Conditions

10-Day Weather Forecast

Almanac

Astronomy

Sep. 30, 2014 Rise Set
Actual Time 7:21 AM CDT 7:06 PM CDT
Civil Twilight 6:51 AM CDT 7:35 PM CDT
Nautical Twilight 6:16 AM CDT 8:10 PM CDT
Astronomical Twilight 5:41 AM CDT 8:46 PM CDT
Moon 1:46 PM CDT 11:22 PM CDT
Length of Visible Light 12h 44m
Length of Day
11h 44m
Tomorrow will be 3m 15s shorter.
Waxing Crescent, 35% of the Moon is Illuminated
Today
Waxing Crescent
Oct 1
First Quarter
Oct 8
Full
Oct 15
Last Quarter
Oct 23
New

Today's Extremes

State Highs State Lows

Community

WunderPhotos

Upload Photos

1,757,609 photos uploaded!

WunderBlogs® & News

Nearby

Snow Depth

Station Depth Elevation
No new snow has been reported.

Earthquake Activity

City Distance Mag. Time & Date
No recent earthquake activity has been reported nearby.
Minimum magnitude displayed is 2.5.

Coastal Water Temperatures

Place Temperature
No Stations Reporting

Nearby Weather Stations